createdAt,value
2022-10-30T00:16:29.135Z,17.09
2022-10-30T00:29:47.934Z,16.05
2022-10-30T02:17:17.432Z,16.11
2022-10-30T02:26:21.712Z,16.05
2022-10-30T02:35:26.064Z,16.06
2022-10-30T03:19:15.595Z,15.82
2022-10-30T03:23:23.279Z,15.69
2022-10-30T03:26:50.469Z,15.74
2022-10-30T03:34:15.253Z,15.74
2022-10-30T03:38:37.590Z,15.48
2022-10-30T03:59:35.651Z,15.66
2022-10-30T04:03:43.579Z,15.57
2022-10-30T05:41:32.590Z,15.84
2022-10-30T09:07:54.534Z,16.69
2022-10-30T09:34:57.551Z,16.77
2022-10-30T09:57:31.505Z,16.92
2022-10-30T10:09:17.392Z,16.78
2022-10-30T10:37:21.218Z,17.55
2022-10-30T10:41:27.239Z,17.55
2022-10-30T10:45:36.747Z,17.43
2022-10-30T10:57:21.002Z,17.56
2022-10-30T11:05:57.488Z,17.62
2022-10-30T11:53:46.626Z,17.94
2022-10-30T13:29:41.706Z,17.18
2022-10-30T14:23:39.626Z,17.47
2022-10-30T14:26:12.309Z,17.62
2022-10-30T14:28:45.041Z,17.49
2022-10-30T14:31:16.905Z,17.69
2022-10-30T14:33:45.138Z,17.78
2022-10-30T14:36:34.237Z,17.56
2022-10-30T14:39:26.614Z,17.80
2022-10-30T14:42:12.335Z,17.84
2022-10-30T14:45:09.862Z,18.02
2022-10-30T14:47:46.909Z,17.68
2022-10-30T14:50:27.532Z,17.71
2022-10-30T14:53:15.268Z,17.88
2022-10-30T14:56:12.063Z,17.81
2022-10-30T14:58:43.727Z,17.69
2022-10-30T15:01:36.249Z,17.63
2022-10-30T15:04:23.088Z,17.56
2022-10-30T15:07:04.309Z,17.35
2022-10-30T15:09:55.325Z,16.87
2022-10-30T15:12:44.639Z,16.96
2022-10-30T15:15:17.492Z,17.30
2022-10-30T15:17:53.922Z,16.97
2022-10-30T15:20:28.808Z,17.19
2022-10-30T15:23:04.241Z,16.95
2022-10-30T15:25:46.841Z,17.11
2022-10-30T15:28:21.599Z,16.90
2022-10-30T15:31:13.807Z,17.00
2022-10-30T15:33:42.709Z,16.91
2022-10-30T15:36:23.907Z,16.85
2022-10-30T15:39:12.566Z,17.00
2022-10-30T15:42:02.072Z,16.98
2022-10-30T15:44:39.602Z,17.17
2022-10-30T15:47:19.499Z,17.10
2022-10-30T15:49:54.518Z,17.12
2022-10-30T15:52:31.907Z,17.44
2022-10-30T15:55:02.458Z,17.24
2022-10-30T15:58:02.235Z,17.44
2022-10-30T16:00:36.456Z,17.32
2022-10-30T16:03:22.918Z,17.47
2022-10-30T16:05:52.185Z,17.31
2022-10-30T16:08:23.239Z,17.21
2022-10-30T16:10:55.368Z,17.28
2022-10-30T16:13:35.001Z,17.26
2022-10-30T16:16:06.531Z,17.21
2022-10-30T16:18:36.135Z,16.77
2022-10-30T16:21:10.728Z,17.21
2022-10-30T16:23:55.428Z,16.74
2022-10-30T16:26:25.528Z,17.01
2022-10-30T16:28:54.778Z,16.87
2022-10-30T16:31:24.838Z,16.74
2022-10-30T16:33:53.625Z,16.48
2022-10-30T16:36:26.762Z,16.62
2022-10-30T16:38:56.369Z,16.50
2022-10-30T16:41:27.226Z,16.05
2022-10-30T16:44:22.636Z,16.50
2022-10-30T16:47:04.040Z,16.75
2022-10-30T16:49:47.057Z,16.79
2022-10-30T16:52:22.098Z,16.56
2022-10-30T16:55:02.217Z,16.02
2022-10-30T16:57:36.550Z,16.24
2022-10-30T17:00:06.965Z,16.13
2022-10-30T17:02:43.651Z,16.28
2022-10-30T17:05:21.205Z,15.87
2022-10-30T17:08:09.718Z,15.60
2022-10-30T17:10:44.840Z,16.05
2022-10-30T17:13:38.927Z,16.23
2022-10-30T17:16:24.845Z,15.95
2022-10-30T17:19:00.502Z,16.23
2022-10-30T17:21:41.240Z,15.77
2022-10-30T17:24:21.417Z,16.02
2022-10-30T17:27:00.280Z,16.24
2022-10-30T17:29:37.472Z,16.21
2022-10-30T17:32:06.974Z,16.39
2022-10-30T17:34:38.919Z,16.32
2022-10-30T17:37:07.336Z,16.29
2022-10-30T17:39:37.275Z,16.25
2022-10-30T17:42:25.465Z,15.95
2022-10-30T17:45:13.240Z,16.34
2022-10-30T17:47:42.590Z,16.34
2022-10-30T17:50:11.029Z,16.36
2022-10-30T17:52:45.331Z,16.22
2022-10-30T17:55:24.756Z,15.99
2022-10-30T17:57:53.628Z,15.78
2022-10-30T18:00:29.995Z,15.79
2022-10-30T18:03:01.070Z,15.91
2022-10-30T18:05:43.856Z,15.95
2022-10-30T18:08:33.159Z,15.72
2022-10-30T18:11:02.018Z,15.59
2022-10-30T18:13:31.672Z,15.68
2022-10-30T18:16:06.922Z,15.87
2022-10-30T18:18:54.781Z,16.03
2022-10-30T18:21:27.753Z,15.89
2022-10-30T18:24:00.906Z,16.11
2022-10-30T18:26:34.127Z,16.19
2022-10-30T18:29:06.495Z,16.36
2022-10-30T18:31:37.338Z,15.60
2022-10-30T18:34:16.695Z,15.47
2022-10-30T18:36:44.918Z,15.74
2022-10-30T18:39:14.416Z,16.05
2022-10-30T18:41:45.945Z,15.95
2022-10-30T18:44:17.987Z,15.73
2022-10-30T18:47:11.495Z,15.49
2022-10-30T18:49:44.356Z,15.92
2022-10-30T18:52:32.386Z,15.65
2022-10-30T18:55:35.908Z,16.09
2022-10-30T18:58:07.056Z,15.99
2022-10-30T19:01:09.883Z,15.95
2022-10-30T19:03:29.424Z,15.90
2022-10-30T19:06:00.129Z,16.01
2022-10-30T19:08:28.429Z,16.07
2022-10-30T19:10:58.834Z,16.33
2022-10-30T19:13:28.257Z,16.18
2022-10-30T19:16:00.458Z,16.18
2022-10-30T19:18:32.217Z,16.06
2022-10-30T19:21:05.138Z,15.77
2022-10-30T19:23:37.384Z,15.69
2022-10-30T19:26:06.165Z,15.87
2022-10-30T19:28:58.109Z,15.99
2022-10-30T19:31:27.958Z,15.93
2022-10-30T19:33:57.745Z,15.76
2022-10-30T19:36:45.236Z,15.69
2022-10-30T19:39:21.438Z,15.85
2022-10-30T19:41:51.996Z,15.98
2022-10-30T19:44:21.758Z,15.92
2022-10-30T19:47:06.199Z,15.97
2022-10-30T19:49:38.810Z,16.28
2022-10-30T19:52:07.246Z,16.39
2022-10-30T19:54:44.804Z,16.23
2022-10-30T19:57:15.192Z,16.51
2022-10-30T19:59:47.912Z,16.28
2022-10-30T20:02:16.168Z,16.43
2022-10-30T20:04:50.248Z,16.41
2022-10-30T20:07:18.981Z,16.30
2022-10-30T20:09:51.357Z,15.62
2022-10-30T20:12:20.080Z,16.02
2022-10-30T20:14:57.127Z,15.84
2022-10-30T20:17:27.776Z,16.06
2022-10-30T20:19:58.264Z,16.22
2022-10-30T20:22:28.498Z,16.09
2022-10-30T20:24:57.045Z,16.39
2022-10-30T20:27:27.071Z,16.56
2022-10-30T20:29:59.170Z,16.46
2022-10-30T20:32:28.634Z,16.39
2022-10-30T20:34:59.691Z,16.16
2022-10-30T20:37:30.029Z,16.26
2022-10-30T20:40:01.866Z,16.29
2022-10-30T20:43:03.123Z,16.11
2022-10-30T20:45:35.467Z,16.17
2022-10-30T20:48:25.889Z,16.34
2022-10-30T20:50:55.773Z,16.00
2022-10-30T20:53:25.832Z,16.07
2022-10-30T20:55:54.467Z,16.09
2022-10-30T20:58:23.542Z,15.98
2022-10-30T21:00:55.583Z,15.72
2022-10-30T21:03:25.028Z,16.13
2022-10-30T21:05:58.577Z,16.18
2022-10-30T21:08:28.892Z,16.25
2022-10-30T21:11:17.412Z,16.48
2022-10-30T21:13:47.956Z,16.47
2022-10-30T21:16:17.276Z,16.46
2022-10-30T21:19:00.184Z,16.44
2022-10-30T21:21:33.845Z,16.55
2022-10-30T21:24:09.570Z,16.32
2022-10-30T21:26:40.123Z,16.11
2022-10-30T21:29:11.196Z,15.87
2022-10-30T21:31:42.331Z,15.96
2022-10-30T21:34:23.262Z,16.01
2022-10-30T21:36:58.527Z,15.89
2022-10-30T21:39:29.402Z,15.74
2022-10-30T21:41:59.996Z,15.69
2022-10-30T21:44:33.283Z,15.79
2022-10-30T21:47:05.100Z,15.98
2022-10-30T21:49:37.887Z,15.67
2022-10-30T21:52:12.258Z,15.86
2022-10-30T21:55:04.235Z,15.70
2022-10-30T21:57:33.787Z,15.99
2022-10-30T22:00:06.155Z,15.66
2022-10-30T22:02:38.219Z,15.82
2022-10-30T22:05:06.866Z,15.93
2022-10-30T22:07:35.216Z,15.87
2022-10-30T22:10:05.652Z,15.85
2022-10-30T22:12:39.935Z,15.85
2022-10-30T22:15:11.859Z,15.82
2022-10-30T22:17:42.021Z,15.87
2022-10-30T22:20:17.272Z,15.93
2022-10-30T22:22:48.008Z,15.82
2022-10-30T22:25:39.295Z,15.93
2022-10-30T22:28:09.152Z,16.01
2022-10-30T22:30:39.995Z,16.02
2022-10-30T22:33:13.934Z,15.67
2022-10-30T22:35:48.451Z,15.79
2022-10-30T22:38:20.923Z,15.60
2022-10-30T22:40:52.728Z,15.14
2022-10-30T22:43:21.517Z,15.13
2022-10-30T22:45:56.197Z,15.42
2022-10-30T22:48:27.343Z,15.33
2022-10-30T22:51:01.152Z,15.55
2022-10-30T22:53:36.020Z,14.96
2022-10-30T22:56:28.591Z,14.85
2022-10-30T22:59:19.396Z,14.69
2022-10-30T23:02:08.626Z,14.79
2022-10-30T23:04:49.459Z,14.87
2022-10-30T23:07:26.518Z,14.99
2022-10-30T23:09:57.162Z,14.98
2022-10-30T23:12:34.634Z,15.09
2022-10-30T23:15:46.692Z,14.94
2022-10-30T23:18:18.239Z,15.22
2022-10-30T23:20:52.748Z,15.06
2022-10-30T23:23:25.167Z,15.27
2022-10-30T23:26:23.152Z,14.96
2022-10-30T23:28:56.817Z,14.98
2022-10-30T23:31:39.550Z,15.24
2022-10-30T23:34:17.630Z,15.17
2022-10-30T23:37:10.796Z,15.42
2022-10-30T23:39:40.300Z,15.34
2022-10-30T23:42:12.621Z,14.89
2022-10-30T23:44:43.595Z,15.16
2022-10-30T23:47:35.474Z,14.99
2022-10-30T23:50:05.060Z,15.19
2022-10-30T23:52:37.997Z,15.16
2022-10-30T23:55:29.947Z,15.46
2022-10-30T23:58:03.606Z,15.33
